createdAt,value
2022-11-20T00:02:00.814Z,14.2
2022-11-20T00:07:43.784Z,13.2
2022-11-20T00:13:26.959Z,13.7
2022-11-20T00:19:10.068Z,14.3
2022-11-20T00:24:53.145Z,14
2022-11-20T00:30:35.961Z,14.1
2022-11-20T00:36:19.875Z,14.2
2022-11-20T00:42:03.184Z,14
2022-11-20T00:47:45.992Z,14.1
2022-11-20T00:53:30.014Z,13.6
2022-11-20T00:59:13.020Z,13.8
2022-11-20T01:04:55.921Z,13.6
2022-11-20T01:10:39.046Z,14.1
2022-11-20T01:16:23.347Z,12.8
2022-11-20T01:22:06.358Z,13.3
2022-11-20T01:27:50.244Z,12.9
2022-11-20T01:33:35.161Z,12.5
2022-11-20T01:39:20.208Z,12.2
2022-11-20T01:45:03.691Z,12.4
2022-11-20T01:50:47.000Z,12.3
2022-11-20T01:56:31.011Z,12.3
2022-11-20T02:02:13.978Z,12.2
2022-11-20T02:07:59.746Z,12.1
2022-11-20T02:13:42.933Z,12.1
2022-11-20T02:19:28.760Z,12.5
2022-11-20T02:25:12.857Z,11.3
2022-11-20T02:30:55.662Z,11.5
2022-11-20T02:36:39.403Z,12
2022-11-20T02:42:23.207Z,12.2
2022-11-20T02:48:06.265Z,11.8
2022-11-20T02:53:49.389Z,12.1
2022-11-20T02:59:32.281Z,11.8
2022-11-20T03:05:15.201Z,11.4
2022-11-20T03:10:58.125Z,12.2
2022-11-20T03:16:41.166Z,11.9
2022-11-20T03:22:24.203Z,11.5
2022-11-20T03:28:07.133Z,11.7
2022-11-20T03:33:50.082Z,11.8
2022-11-20T03:39:33.162Z,11.7
2022-11-20T03:45:16.308Z,11.4
2022-11-20T03:51:04.196Z,12
2022-11-20T03:56:47.101Z,11.3
2022-11-20T04:02:30.113Z,11.4
2022-11-20T04:08:14.126Z,11.2
2022-11-20T04:13:57.962Z,11.7
2022-11-20T04:19:46.983Z,11.9
2022-11-20T04:25:30.988Z,12.3
2022-11-20T04:31:15.737Z,12.3
2022-11-20T04:36:59.606Z,11.9
2022-11-20T04:42:42.589Z,12.2
2022-11-20T04:48:26.370Z,11.9
2022-11-20T04:54:09.280Z,12
2022-11-20T04:59:53.782Z,11.9
2022-11-20T05:05:37.491Z,12.3
2022-11-20T05:11:21.489Z,11.8
2022-11-20T05:17:04.471Z,11.8
2022-11-20T05:22:47.773Z,11.4
2022-11-20T05:28:31.585Z,11.4
2022-11-20T05:34:15.576Z,12.1
2022-11-20T05:39:58.434Z,11.9
2022-11-20T05:45:41.465Z,11.6
2022-11-20T05:51:24.258Z,12.3
2022-11-20T05:57:07.050Z,11.7
2022-11-20T06:02:50.042Z,12.3
2022-11-20T06:08:33.543Z,11.6
2022-11-20T06:14:16.363Z,11.8
2022-11-20T06:19:59.695Z,11.4
2022-11-20T06:25:44.401Z,11.9
2022-11-20T06:31:27.765Z,11.1
2022-11-20T06:37:10.624Z,11.9
2022-11-20T06:42:53.623Z,11.3
2022-11-20T06:48:36.752Z,10.9
2022-11-20T06:54:19.911Z,11.3
2022-11-20T07:00:02.690Z,11.2
2022-11-20T07:05:46.605Z,11.4
2022-11-20T07:11:29.478Z,10.9
2022-11-20T07:17:12.434Z,10.1
2022-11-20T07:23:00.334Z,10.2
2022-11-20T07:28:46.319Z,9.8
2022-11-20T07:34:29.313Z,10.1
2022-11-20T07:40:12.832Z,10.4
2022-11-20T07:45:57.267Z,9.3
2022-11-20T07:51:40.272Z,9.3
2022-11-20T07:57:29.528Z,9.3
2022-11-20T08:03:12.839Z,9.8
2022-11-20T08:08:57.001Z,9.5
2022-11-20T08:14:40.000Z,9.3
2022-11-20T08:20:22.733Z,9.4
2022-11-20T08:26:07.656Z,9.8
2022-11-20T08:31:50.436Z,8.6
2022-11-20T08:37:33.317Z,9
2022-11-20T08:43:16.411Z,7.7
2022-11-20T08:48:59.296Z,8.1
2022-11-20T08:54:42.141Z,7.9
2022-11-20T09:00:25.328Z,8.3
2022-11-20T09:06:09.165Z,7.7
2022-11-20T09:11:52.227Z,6.8
2022-11-20T09:17:35.067Z,6.8
2022-11-20T09:23:18.338Z,6.7
2022-11-20T09:29:01.555Z,6.5
2022-11-20T09:34:44.764Z,6
2022-11-20T09:40:30.245Z,5.9
2022-11-20T09:46:17.075Z,5.4
2022-11-20T09:52:00.910Z,5.1
2022-11-20T09:57:45.562Z,5.2
2022-11-20T10:03:33.774Z,5
2022-11-20T10:09:24.297Z,4.7
2022-11-20T10:15:14.698Z,4.1
2022-11-20T10:21:03.262Z,4.2
2022-11-20T10:26:51.372Z,3.9
2022-11-20T10:32:37.604Z,3.6
2022-11-20T10:38:24.196Z,3.6
2022-11-20T10:44:12.371Z,3.6
2022-11-20T10:49:56.566Z,3.3
2022-11-20T10:55:43.548Z,3.1
2022-11-20T11:01:27.051Z,3.2
2022-11-20T11:07:14.879Z,3
2022-11-20T11:12:57.639Z,3.1
2022-11-20T11:18:40.665Z,2.5
2022-11-20T11:24:44.193Z,2.7
2022-11-20T11:30:26.017Z,2.5
2022-11-20T11:36:13.812Z,2.4
2022-11-20T11:41:56.604Z,2.1
2022-11-20T11:47:46.684Z,2.3
2022-11-20T11:53:30.394Z,2.8
2022-11-20T11:59:17.338Z,2.4
2022-11-20T12:05:03.106Z,2.5
2022-11-20T12:10:49.753Z,2.7
2022-11-20T12:16:35.153Z,2.4
2022-11-20T12:22:24.801Z,2.5
2022-11-20T12:28:27.220Z,2.2
2022-11-20T12:34:15.693Z,2.5
2022-11-20T12:40:01.782Z,2.5
2022-11-20T12:46:06.210Z,2.7
2022-11-20T12:51:59.694Z,2.4
2022-11-20T12:57:47.596Z,2.5
2022-11-20T13:03:45.905Z,2.9
2022-11-20T13:09:29.261Z,2.6
2022-11-20T13:15:18.589Z,2.6
2022-11-20T13:21:01.724Z,2.5
2022-11-20T13:26:44.550Z,2.4
2022-11-20T13:32:27.526Z,2.5
2022-11-20T13:38:13.037Z,2.4
2022-11-20T13:43:56.525Z,2.2
2022-11-20T13:49:46.659Z,2.3
2022-11-20T13:55:35.177Z,2.3
2022-11-20T14:01:22.999Z,2.2
2022-11-20T14:07:08.153Z,2
2022-11-20T14:12:52.382Z,2
2022-11-20T14:18:35.324Z,1.9
2022-11-20T14:24:21.868Z,1.9
2022-11-20T14:30:05.963Z,1.5
2022-11-20T14:35:50.511Z,1.7
2022-11-20T14:41:33.346Z,1.7
2022-11-20T14:47:19.940Z,1.8
2022-11-20T14:53:03.140Z,1.6
2022-11-20T14:58:45.891Z,1.5
2022-11-20T15:04:29.653Z,1.4
2022-11-20T15:10:15.129Z,1.5
2022-11-20T15:15:58.762Z,1.4
2022-11-20T15:21:41.448Z,1.4
2022-11-20T15:27:24.286Z,1.3
2022-11-20T15:33:07.699Z,1.4
2022-11-20T15:38:50.980Z,1.2
2022-11-20T15:44:33.831Z,1.6
2022-11-20T15:50:19.769Z,1.5
2022-11-20T15:56:02.896Z,1.5
2022-11-20T16:01:46.422Z,1.3
2022-11-20T16:07:29.774Z,1.7
2022-11-20T16:13:17.628Z,1.7
2022-11-20T16:19:00.801Z,1.7
2022-11-20T16:24:43.857Z,1.7
2022-11-20T16:30:27.219Z,1.9
2022-11-20T16:36:13.519Z,1.8
2022-11-20T16:41:56.269Z,1.7
2022-11-20T16:47:39.551Z,1.6
2022-11-20T16:53:23.581Z,1.8
2022-11-20T16:59:06.629Z,1.9
2022-11-20T17:04:49.431Z,1.9
2022-11-20T17:10:32.421Z,1.7
2022-11-20T17:16:17.188Z,1.9
2022-11-20T17:22:00.007Z,2.4
2022-11-20T17:27:42.892Z,3
2022-11-20T17:33:25.878Z,1.8
2022-11-20T17:39:08.875Z,2
2022-11-20T17:44:51.860Z,2.1
2022-11-20T17:50:35.814Z,2
2022-11-20T17:56:18.949Z,2.5
2022-11-20T18:02:05.640Z,2
2022-11-20T18:07:48.783Z,2.2
2022-11-20T18:13:31.562Z,2
2022-11-20T18:19:15.448Z,2.1
2022-11-20T18:24:58.424Z,2.4
2022-11-20T18:30:41.684Z,2.2
2022-11-20T18:36:25.241Z,2.2
2022-11-20T18:42:07.960Z,2.2
2022-11-20T18:47:50.849Z,2
2022-11-20T18:53:33.633Z,2.2
2022-11-20T18:59:17.813Z,2.3
2022-11-20T19:05:01.057Z,2.3
2022-11-20T19:10:43.929Z,2.3
2022-11-20T19:16:26.797Z,2.3
2022-11-20T19:22:09.899Z,2.9
2022-11-20T19:27:52.940Z,2.4
2022-11-20T19:33:36.401Z,2.7
2022-11-20T19:39:19.525Z,3.2
2022-11-20T19:45:02.607Z,2.7
2022-11-20T19:50:45.744Z,3.1
2022-11-20T19:56:29.944Z,2.6
2022-11-20T20:02:16.502Z,2.7
2022-11-20T20:08:00.085Z,2.8
2022-11-20T20:13:43.398Z,2.7
2022-11-20T20:19:27.217Z,2.9
2022-11-20T20:25:11.366Z,2.7
2022-11-20T20:30:55.989Z,3
2022-11-20T20:36:39.018Z,2.9
2022-11-20T20:42:22.272Z,2.6
2022-11-20T20:48:06.299Z,2.4
2022-11-20T20:53:49.308Z,2.3
2022-11-20T20:59:32.413Z,3
2022-11-20T21:05:15.486Z,2.8
2022-11-20T21:11:03.381Z,3.2
2022-11-20T21:16:47.506Z,2.8
2022-11-20T21:22:37.646Z,2.5
2022-11-20T21:28:23.582Z,2.3
2022-11-20T21:34:06.869Z,2.6
2022-11-20T21:39:49.712Z,2.8
2022-11-20T21:45:33.021Z,2.3
2022-11-20T21:51:16.750Z,2.5
2022-11-20T21:56:59.628Z,2.4
2022-11-20T22:02:43.702Z,2.2
2022-11-20T22:08:26.859Z,2.6
2022-11-20T22:14:10.818Z,2.5
2022-11-20T22:19:53.831Z,2.4
2022-11-20T22:25:36.805Z,2.8
2022-11-20T22:31:20.468Z,2.2
2022-11-20T22:37:03.469Z,2.2
2022-11-20T22:42:49.676Z,2.2
2022-11-20T22:48:32.758Z,2.3
2022-11-20T22:54:16.294Z,2.5
2022-11-20T22:59:59.581Z,2.9
2022-11-20T23:05:42.547Z,2.7
2022-11-20T23:11:26.502Z,2.5
2022-11-20T23:17:10.569Z,3
2022-11-20T23:22:53.479Z,2.9
2022-11-20T23:28:37.062Z,3.5
2022-11-20T23:34:20.042Z,4.2
2022-11-20T23:40:03.162Z,3.3
2022-11-20T23:45:47.596Z,3
2022-11-20T23:51:30.469Z,2.8
2022-11-20T23:57:13.406Z,2.8
